createdAt,value
2023-05-23T00:01:14.781Z,17.90
2023-05-23T00:03:41.771Z,17.90
2023-05-23T00:06:09.038Z,17.90
2023-05-23T00:08:35.914Z,17.80
2023-05-23T00:11:02.825Z,17.80
2023-05-23T00:13:34.867Z,17.80
2023-05-23T00:16:02.685Z,17.70
2023-05-23T00:18:30.724Z,17.70
2023-05-23T00:20:59.102Z,17.60
2023-05-23T00:23:25.966Z,17.50
2023-05-23T00:25:55.445Z,17.50
2023-05-23T00:28:22.477Z,17.40
2023-05-23T00:30:51.563Z,17.30
2023-05-23T00:33:22.806Z,17.30
2023-05-23T00:35:49.647Z,17.40
2023-05-23T00:38:19.506Z,17.30
2023-05-23T00:40:46.613Z,17.30
2023-05-23T00:43:13.456Z,17.30
2023-05-23T00:45:40.723Z,17.30
2023-05-23T00:48:11.992Z,17.30
2023-05-23T00:50:38.798Z,17.20
2023-05-23T00:53:05.621Z,17.20
2023-05-23T00:55:32.643Z,17.20
2023-05-23T00:57:59.448Z,17.20
2023-05-23T01:00:29.103Z,17.20
2023-05-23T01:02:56.623Z,17.20
2023-05-23T01:05:25.029Z,17.20
2023-05-23T01:07:52.196Z,17.20
2023-05-23T01:10:24.404Z,17.10
2023-05-23T01:13:18.292Z,17.10
2023-05-23T01:16:13.715Z,17.10
2023-05-23T01:18:54.708Z,17.00
2023-05-23T01:21:24.254Z,17.00
2023-05-23T01:24:06.272Z,17.00
2023-05-23T01:27:03.794Z,16.90
2023-05-23T01:29:40.127Z,16.80
2023-05-23T01:32:11.653Z,16.80
2023-05-23T01:34:39.069Z,16.80
2023-05-23T01:37:10.559Z,16.70
2023-05-23T01:39:38.048Z,16.70
2023-05-23T01:42:05.020Z,16.70
2023-05-23T01:44:32.652Z,16.60
2023-05-23T01:47:01.584Z,16.60
2023-05-23T01:49:31.144Z,16.50
2023-05-23T01:51:59.542Z,16.50
2023-05-23T01:54:26.329Z,16.50
2023-05-23T01:56:53.167Z,16.50
2023-05-23T01:59:19.928Z,16.40
2023-05-23T02:01:46.767Z,16.40
2023-05-23T02:04:16.280Z,16.40
2023-05-23T02:06:43.201Z,16.30
2023-05-23T02:09:10.193Z,16.20
2023-05-23T02:11:37.057Z,16.20
2023-05-23T02:14:04.316Z,16.20
2023-05-23T02:16:31.179Z,16.10
2023-05-23T02:18:58.634Z,16.10
2023-05-23T02:21:27.809Z,16.10
2023-05-23T02:23:54.637Z,16.10
2023-05-23T02:26:21.705Z,16.10
2023-05-23T02:28:48.770Z,16.10
2023-05-23T02:31:17.321Z,16.00
2023-05-23T02:33:46.745Z,16.00
2023-05-23T02:36:13.563Z,16.00
2023-05-23T02:38:42.530Z,16.00
2023-05-23T02:41:11.709Z,15.90
2023-05-23T02:43:39.323Z,15.90
2023-05-23T02:46:06.112Z,15.90
2023-05-23T02:48:35.361Z,15.90
2023-05-23T02:51:07.384Z,15.80
2023-05-23T02:53:36.590Z,15.80
2023-05-23T02:56:03.414Z,15.70
2023-05-23T02:58:32.446Z,15.80
2023-05-23T03:01:01.885Z,15.70
2023-05-23T03:03:37.228Z,15.70
2023-05-23T03:06:06.422Z,15.70
2023-05-23T03:08:35.612Z,15.70
2023-05-23T03:11:02.484Z,15.70
2023-05-23T03:13:29.320Z,15.70
2023-05-23T03:15:56.136Z,15.70
2023-05-23T03:18:22.984Z,15.70
2023-05-23T03:20:54.412Z,15.70
2023-05-23T03:23:23.429Z,15.70
2023-05-23T03:25:50.383Z,15.70
2023-05-23T03:28:17.218Z,15.70
2023-05-23T03:30:44.098Z,15.70
2023-05-23T03:33:11.353Z,15.80
2023-05-23T03:35:41.424Z,15.80
2023-05-23T03:38:08.585Z,15.80
2023-05-23T03:40:35.496Z,15.80
2023-05-23T03:43:06.251Z,15.80
2023-05-23T03:45:33.279Z,15.80
2023-05-23T03:48:02.971Z,15.80
2023-05-23T03:50:32.101Z,15.80
2023-05-23T03:53:01.143Z,15.80
2023-05-23T03:55:28.037Z,15.80
2023-05-23T03:57:54.905Z,15.80
2023-05-23T04:00:21.756Z,15.80
2023-05-23T04:02:50.265Z,15.80
2023-05-23T04:05:17.240Z,15.90
2023-05-23T04:07:44.623Z,15.90
2023-05-23T04:10:13.866Z,16.00
2023-05-23T04:12:41.809Z,16.00
2023-05-23T04:15:09.229Z,16.00
2023-05-23T04:17:39.076Z,16.00
2023-05-23T04:20:10.118Z,16.10
2023-05-23T04:22:37.214Z,16.20
2023-05-23T04:25:04.368Z,16.20
2023-05-23T04:27:31.172Z,16.20
2023-05-23T04:29:58.369Z,16.20
2023-05-23T04:32:25.488Z,16.30
2023-05-23T04:34:52.569Z,16.40
2023-05-23T04:37:26.219Z,16.40
2023-05-23T04:39:53.384Z,16.50
2023-05-23T04:42:24.865Z,16.50
2023-05-23T04:44:52.831Z,16.60
2023-05-23T04:47:19.858Z,16.60
2023-05-23T04:49:46.738Z,16.70
2023-05-23T04:52:13.518Z,16.80
2023-05-23T04:54:44.775Z,16.80
2023-05-23T04:57:14.214Z,16.90
2023-05-23T04:59:43.422Z,17.00
2023-05-23T05:02:12.542Z,17.00
2023-05-23T05:04:39.379Z,17.10
2023-05-23T05:07:08.855Z,17.10
2023-05-23T05:09:36.510Z,17.20
2023-05-23T05:12:03.353Z,17.30
2023-05-23T05:14:30.938Z,17.40
2023-05-23T05:17:02.778Z,17.40
2023-05-23T05:19:30.022Z,17.50
2023-05-23T05:21:57.915Z,17.60
2023-05-23T05:24:27.884Z,17.70
2023-05-23T05:26:57.323Z,17.80
2023-05-23T05:29:28.930Z,17.90
2023-05-23T05:31:55.908Z,18.00
2023-05-23T05:34:22.961Z,18.00
2023-05-23T05:36:49.792Z,18.10
2023-05-23T05:39:17.006Z,18.20
2023-05-23T05:41:43.823Z,18.20
2023-05-23T05:44:10.691Z,18.20
2023-05-23T05:46:37.641Z,18.30
2023-05-23T05:49:04.508Z,18.30
2023-05-23T05:51:31.660Z,18.50
2023-05-23T05:53:58.615Z,18.60
2023-05-23T05:56:26.241Z,18.70
2023-05-23T05:58:53.117Z,18.80
2023-05-23T06:01:20.148Z,19.00
2023-05-23T06:03:47.189Z,19.10
2023-05-23T06:06:16.403Z,19.20
2023-05-23T06:08:43.445Z,19.30
2023-05-23T06:11:12.655Z,19.30
2023-05-23T06:13:41.942Z,19.30
2023-05-23T06:16:08.814Z,19.40
2023-05-23T06:18:35.666Z,19.40
2023-05-23T06:21:05.117Z,19.40
2023-05-23T06:23:32.016Z,19.50
2023-05-23T06:25:59.718Z,19.50
2023-05-23T06:28:28.897Z,19.50
2023-05-23T06:30:55.760Z,19.50
2023-05-23T06:33:24.770Z,19.60
2023-05-23T06:35:56.291Z,19.70
2023-05-23T06:38:23.122Z,19.70
2023-05-23T06:40:50.009Z,19.80
2023-05-23T06:43:16.888Z,19.80
2023-05-23T06:45:50.445Z,19.90
2023-05-23T06:48:17.335Z,19.90
2023-05-23T06:50:44.245Z,19.90
2023-05-23T06:53:11.212Z,19.90
2023-05-23T06:55:40.266Z,20.00
2023-05-23T06:58:07.106Z,20.00
2023-05-23T07:00:33.991Z,20.00
2023-05-23T07:03:03.458Z,20.10
2023-05-23T07:05:30.527Z,20.10
2023-05-23T07:07:57.345Z,20.10
2023-05-23T07:10:24.168Z,20.20
2023-05-23T07:12:51.224Z,20.20
2023-05-23T07:15:18.151Z,20.20
2023-05-23T07:17:45.019Z,20.30
2023-05-23T07:20:12.009Z,20.30
2023-05-23T07:22:38.809Z,20.30
2023-05-23T07:25:08.628Z,20.40
2023-05-23T07:27:37.601Z,20.40
2023-05-23T07:30:09.566Z,20.50
2023-05-23T07:32:36.852Z,20.60
2023-05-23T07:35:06.660Z,20.60
2023-05-23T07:37:35.660Z,20.70
2023-05-23T07:40:02.550Z,20.70
2023-05-23T07:42:29.369Z,20.80
2023-05-23T07:45:01.697Z,20.80
2023-05-23T07:47:30.994Z,20.80
2023-05-23T07:49:57.865Z,20.90
2023-05-23T07:52:24.694Z,20.90
2023-05-23T07:54:51.542Z,20.90
2023-05-23T07:57:21.005Z,21.00
2023-05-23T07:59:50.275Z,21.00
2023-05-23T08:02:17.375Z,21.10
2023-05-23T08:04:45.378Z,21.20
2023-05-23T08:07:12.925Z,21.30
2023-05-23T08:09:42.936Z,21.30
2023-05-23T08:12:09.896Z,21.30
2023-05-23T08:14:49.992Z,21.40
2023-05-23T08:17:21.128Z,21.40
2023-05-23T08:19:48.052Z,21.40
2023-05-23T08:22:14.851Z,21.50
2023-05-23T08:24:43.883Z,21.60
2023-05-23T08:27:13.110Z,21.60
2023-05-23T08:29:40.095Z,21.60
2023-05-23T08:32:09.244Z,21.60
2023-05-23T08:34:36.074Z,21.70
2023-05-23T08:37:03.196Z,21.70
2023-05-23T08:39:32.211Z,21.70
2023-05-23T08:41:59.061Z,21.80
2023-05-23T08:44:25.936Z,21.80
2023-05-23T08:46:53.496Z,21.80
2023-05-23T08:49:20.321Z,21.90
2023-05-23T08:51:47.177Z,21.90
2023-05-23T08:54:17.203Z,22.00
2023-05-23T08:56:44.032Z,22.10
2023-05-23T08:59:11.293Z,22.10
2023-05-23T09:01:41.498Z,22.10
2023-05-23T09:04:11.315Z,22.10
2023-05-23T09:06:38.189Z,22.20
2023-05-23T09:09:05.187Z,22.20
2023-05-23T09:11:36.107Z,22.30
2023-05-23T09:14:05.197Z,22.30
2023-05-23T09:16:37.549Z,22.40
2023-05-23T09:19:11.261Z,22.40
2023-05-23T09:21:38.188Z,22.50
2023-05-23T09:24:06.021Z,22.50
2023-05-23T09:26:32.947Z,22.50
2023-05-23T09:29:00.536Z,22.60
2023-05-23T09:31:32.858Z,22.60
2023-05-23T09:34:01.962Z,22.60
2023-05-23T09:36:30.450Z,22.70
2023-05-23T09:38:57.291Z,22.70
2023-05-23T09:41:25.199Z,22.80
2023-05-23T09:43:55.196Z,22.80
2023-05-23T09:46:22.384Z,22.80
2023-05-23T09:48:58.157Z,22.90
2023-05-23T09:51:25.077Z,22.90
2023-05-23T09:53:53.065Z,22.90
2023-05-23T09:56:20.033Z,22.90
2023-05-23T09:58:50.893Z,23.00
2023-05-23T10:01:19.908Z,23.10
2023-05-23T10:03:51.025Z,23.10
2023-05-23T10:06:57.790Z,23.20
2023-05-23T10:09:27.562Z,23.30
2023-05-23T10:12:02.637Z,23.40
2023-05-23T10:14:30.172Z,23.40
2023-05-23T10:17:08.936Z,23.40
2023-05-23T10:19:50.600Z,23.50
2023-05-23T10:22:17.432Z,23.50
2023-05-23T10:24:46.158Z,23.60
2023-05-23T10:27:13.001Z,23.60
2023-05-23T10:29:39.801Z,23.60
2023-05-23T10:32:09.166Z,23.70
2023-05-23T10:34:41.949Z,23.80
2023-05-23T10:37:12.377Z,23.80
2023-05-23T10:39:44.380Z,23.80
2023-05-23T10:42:26.412Z,23.90
2023-05-23T10:44:53.226Z,24.00
2023-05-23T10:47:27.889Z,24.10
2023-05-23T10:49:55.339Z,24.10
2023-05-23T10:52:24.030Z,24.20
2023-05-23T10:54:52.469Z,24.30
2023-05-23T10:57:20.733Z,24.60
2023-05-23T10:59:47.650Z,25.00
2023-05-23T11:02:16.286Z,25.60
2023-05-23T11:04:43.315Z,26.30
2023-05-23T11:07:34.438Z,27.10
2023-05-23T11:10:19.461Z,27.70
2023-05-23T11:12:50.871Z,28.10
2023-05-23T11:15:20.531Z,28.30
2023-05-23T11:17:55.160Z,28.50
2023-05-23T11:20:25.877Z,28.20
2023-05-23T11:22:59.075Z,27.80
2023-05-23T11:25:44.139Z,27.60
2023-05-23T11:28:14.261Z,27.80
2023-05-23T11:30:44.296Z,28.10
2023-05-23T11:33:17.090Z,28.50
2023-05-23T11:35:45.807Z,28.70
2023-05-23T11:38:12.830Z,29.00
2023-05-23T11:40:42.983Z,29.10
2023-05-23T11:43:16.864Z,28.90
2023-05-23T11:45:43.955Z,28.80
2023-05-23T11:48:15.029Z,28.50
2023-05-23T11:50:46.071Z,28.20
2023-05-23T11:53:20.828Z,27.80
2023-05-23T11:55:50.864Z,27.50
2023-05-23T11:58:17.685Z,27.20
2023-05-23T12:00:45.667Z,26.80
2023-05-23T12:03:12.918Z,26.40
2023-05-23T12:05:39.830Z,26.10
2023-05-23T12:08:06.793Z,25.90
2023-05-23T12:10:35.979Z,25.70
2023-05-23T12:13:02.842Z,25.70
2023-05-23T12:15:29.899Z,25.50
2023-05-23T12:17:57.088Z,25.50
2023-05-23T12:20:26.626Z,25.50
2023-05-23T12:22:57.003Z,25.50
2023-05-23T12:25:26.031Z,25.50
2023-05-23T12:27:56.370Z,25.40
2023-05-23T12:30:23.286Z,25.40
2023-05-23T12:32:52.919Z,25.30
2023-05-23T12:35:19.869Z,25.30
2023-05-23T12:37:48.932Z,25.20
2023-05-23T12:40:16.321Z,25.20
2023-05-23T12:42:54.913Z,25.10
2023-05-23T12:45:25.066Z,25.10
2023-05-23T12:47:54.184Z,25.00
2023-05-23T12:50:21.559Z,25.00
2023-05-23T12:52:48.501Z,24.90
2023-05-23T12:55:15.472Z,24.90
2023-05-23T12:57:42.300Z,24.80
2023-05-23T13:00:09.897Z,24.80
2023-05-23T13:02:36.778Z,24.80
2023-05-23T13:05:03.700Z,24.70
2023-05-23T13:07:30.550Z,24.70
2023-05-23T13:09:57.616Z,24.70
2023-05-23T13:12:24.570Z,24.70
2023-05-23T13:14:53.739Z,24.70
2023-05-23T13:17:20.942Z,24.70
2023-05-23T13:19:47.735Z,24.70
2023-05-23T13:22:14.619Z,24.70
2023-05-23T13:24:46.196Z,24.80
2023-05-23T13:27:13.141Z,24.80
2023-05-23T13:29:42.177Z,24.80
2023-05-23T13:32:11.269Z,24.80
2023-05-23T13:34:38.087Z,24.90
2023-05-23T13:37:05.722Z,25.00
2023-05-23T13:39:32.573Z,25.10
2023-05-23T13:42:01.864Z,25.20
2023-05-23T13:44:28.657Z,25.40
2023-05-23T13:46:55.746Z,25.50
2023-05-23T13:49:22.806Z,25.50
2023-05-23T13:51:50.230Z,25.70
2023-05-23T13:54:17.138Z,25.80
2023-05-23T13:56:44.306Z,26.00
2023-05-23T13:59:11.139Z,26.30
2023-05-23T14:01:38.005Z,26.70
2023-05-23T14:04:06.851Z,27.50
2023-05-23T14:06:35.153Z,28.40
2023-05-23T14:09:01.960Z,29.20
2023-05-23T14:11:29.307Z,29.90
2023-05-23T14:13:58.166Z,30.60
2023-05-23T14:16:25.297Z,31.10
2023-05-23T14:18:52.185Z,31.50
2023-05-23T14:21:19.027Z,31.70
2023-05-23T14:23:48.465Z,31.90
2023-05-23T14:26:15.286Z,31.90
2023-05-23T14:28:42.458Z,32.00
2023-05-23T14:31:11.778Z,32.10
2023-05-23T14:33:41.168Z,32.10
2023-05-23T14:36:13.538Z,32.00
2023-05-23T14:38:45.478Z,31.90
2023-05-23T14:41:15.420Z,32.00
2023-05-23T14:43:42.191Z,31.90
2023-05-23T14:46:11.418Z,32.00
2023-05-23T14:48:40.736Z,32.00
2023-05-23T14:51:07.646Z,32.00
2023-05-23T14:53:34.661Z,31.80
2023-05-23T14:56:03.896Z,31.60
2023-05-23T14:58:30.754Z,31.20
2023-05-23T15:00:57.554Z,30.70
2023-05-23T15:03:24.417Z,30.30
2023-05-23T15:05:53.765Z,29.80
2023-05-23T15:08:22.768Z,29.40
2023-05-23T15:10:49.628Z,28.90
2023-05-23T15:13:19.063Z,28.40
2023-05-23T15:15:46.499Z,28.00
2023-05-23T15:18:27.950Z,27.70
2023-05-23T15:21:05.074Z,27.40
2023-05-23T15:23:34.709Z,27.10
2023-05-23T15:26:01.693Z,27.00
2023-05-23T15:28:28.522Z,26.80
2023-05-23T15:30:57.157Z,26.60
2023-05-23T15:33:24.099Z,26.50
2023-05-23T15:35:53.949Z,26.40
2023-05-23T15:38:20.866Z,26.30
2023-05-23T15:40:49.083Z,26.20
2023-05-23T15:43:15.990Z,26.10
2023-05-23T15:45:42.902Z,26.00
2023-05-23T15:48:09.824Z,25.80
2023-05-23T15:50:36.775Z,25.70
2023-05-23T15:53:03.645Z,25.70
2023-05-23T15:55:31.080Z,25.60
2023-05-23T15:57:57.977Z,25.60
2023-05-23T16:00:24.870Z,25.40
2023-05-23T16:02:54.232Z,25.40
2023-05-23T16:05:23.603Z,25.30
2023-05-23T16:07:51.446Z,25.20
2023-05-23T16:10:18.405Z,25.10
2023-05-23T16:12:45.303Z,25.10
2023-05-23T16:15:12.136Z,25.00
2023-05-23T16:17:38.979Z,25.00
2023-05-23T16:20:08.555Z,24.90
2023-05-23T16:22:35.471Z,24.90
2023-05-23T16:25:06.145Z,24.90
2023-05-23T16:27:32.941Z,24.90
2023-05-23T16:29:59.811Z,24.90
2023-05-23T16:32:28.401Z,24.80
2023-05-23T16:34:57.418Z,24.70
2023-05-23T16:37:24.243Z,24.70
2023-05-23T16:39:51.079Z,24.70
2023-05-23T16:42:17.969Z,24.60
2023-05-23T16:44:45.549Z,24.60
2023-05-23T16:47:12.404Z,24.60
2023-05-23T16:49:39.213Z,24.60
2023-05-23T16:52:06.175Z,24.50
2023-05-23T16:54:32.977Z,24.40
2023-05-23T16:57:02.032Z,24.40
2023-05-23T16:59:29.930Z,24.40
2023-05-23T17:01:57.098Z,24.40
2023-05-23T17:04:26.406Z,24.30
2023-05-23T17:06:55.472Z,24.40
2023-05-23T17:09:22.429Z,24.30
2023-05-23T17:11:51.873Z,24.30
2023-05-23T17:14:18.757Z,24.30
2023-05-23T17:16:45.597Z,24.30
2023-05-23T17:19:12.455Z,24.20
2023-05-23T17:21:39.361Z,24.20
2023-05-23T17:24:06.304Z,24.20
2023-05-23T17:26:33.196Z,24.20
2023-05-23T17:29:00.117Z,24.10
2023-05-23T17:31:29.677Z,24.10
2023-05-23T17:33:57.546Z,24.10
2023-05-23T17:36:24.364Z,24.00
2023-05-23T17:38:53.758Z,24.00
2023-05-23T17:41:23.157Z,24.00
2023-05-23T17:43:50.331Z,24.00
2023-05-23T17:46:19.655Z,23.90
2023-05-23T17:48:48.224Z,23.80
2023-05-23T17:51:17.579Z,23.80
2023-05-23T17:53:44.464Z,23.80
2023-05-23T17:56:11.435Z,23.70
2023-05-23T17:58:39.705Z,23.70
2023-05-23T18:01:07.952Z,23.70
2023-05-23T18:03:38.281Z,23.60
2023-05-23T18:06:05.212Z,23.60
2023-05-23T18:08:32.052Z,23.60
2023-05-23T18:11:01.112Z,23.60
2023-05-23T18:13:27.926Z,23.50
2023-05-23T18:15:54.733Z,23.50
2023-05-23T18:18:21.727Z,23.50
2023-05-23T18:20:50.954Z,23.50
2023-05-23T18:23:17.915Z,23.40
2023-05-23T18:25:47.308Z,23.40
2023-05-23T18:28:14.160Z,23.30
2023-05-23T18:30:41.528Z,23.30
2023-05-23T18:33:08.567Z,23.30
2023-05-23T18:35:35.436Z,23.30
2023-05-23T18:38:02.292Z,23.30
2023-05-23T18:40:31.346Z,23.20
2023-05-23T18:42:58.212Z,23.20
2023-05-23T18:45:24.993Z,23.20
2023-05-23T18:47:51.918Z,23.10
2023-05-23T18:50:18.763Z,23.10
2023-05-23T18:52:45.588Z,23.10
2023-05-23T18:55:12.825Z,23.10
2023-05-23T18:57:41.880Z,23.10
2023-05-23T19:00:09.260Z,23.10
2023-05-23T19:02:36.277Z,23.10
2023-05-23T19:05:03.434Z,23.00
2023-05-23T19:07:32.665Z,23.00
2023-05-23T19:10:03.884Z,23.00
2023-05-23T19:12:35.454Z,23.00
2023-05-23T19:15:05.619Z,23.00
2023-05-23T19:17:35.315Z,22.90
2023-05-23T19:20:03.395Z,22.90
2023-05-23T19:22:47.030Z,22.90
2023-05-23T19:25:18.302Z,22.80
2023-05-23T19:27:45.100Z,22.80
2023-05-23T19:30:14.576Z,22.70
2023-05-23T19:32:43.920Z,22.70
2023-05-23T19:35:10.805Z,22.70
2023-05-23T19:37:37.642Z,22.60
2023-05-23T19:40:05.330Z,22.60
2023-05-23T19:42:32.192Z,22.60
2023-05-23T19:44:59.027Z,22.60
2023-05-23T19:47:27.404Z,22.50
2023-05-23T19:49:55.572Z,22.50
2023-05-23T19:52:24.660Z,22.40
2023-05-23T19:54:51.728Z,22.40
2023-05-23T19:57:18.575Z,22.40
2023-05-23T19:59:45.484Z,22.30
2023-05-23T20:02:12.277Z,22.30
2023-05-23T20:04:41.750Z,22.30
2023-05-23T20:07:08.697Z,22.30
2023-05-23T20:09:35.498Z,22.30
2023-05-23T20:12:02.963Z,22.20
2023-05-23T20:14:30.920Z,22.10
2023-05-23T20:16:57.860Z,22.10
2023-05-23T20:19:27.242Z,22.10
2023-05-23T20:21:54.199Z,22.00
2023-05-23T20:24:25.482Z,22.00
2023-05-23T20:26:52.278Z,22.00
2023-05-23T20:29:21.627Z,21.90
2023-05-23T20:31:48.539Z,21.90
2023-05-23T20:34:15.521Z,21.90
2023-05-23T20:36:44.753Z,21.90
2023-05-23T20:39:11.784Z,21.80
2023-05-23T20:41:42.021Z,21.80
2023-05-23T20:44:11.887Z,21.70
2023-05-23T20:46:41.424Z,21.70
2023-05-23T20:49:08.404Z,21.60
2023-05-23T20:51:37.252Z,21.60
2023-05-23T20:54:05.382Z,21.50
2023-05-23T20:56:35.054Z,21.50
2023-05-23T20:59:01.916Z,21.50
2023-05-23T21:01:31.072Z,21.40
2023-05-23T21:03:58.122Z,21.40
2023-05-23T21:06:27.207Z,21.30
2023-05-23T21:08:54.007Z,21.30
2023-05-23T21:11:21.123Z,21.30
2023-05-23T21:13:47.934Z,21.20
2023-05-23T21:16:15.065Z,21.20
2023-05-23T21:18:41.953Z,21.10
2023-05-23T21:21:11.096Z,21.10
2023-05-23T21:23:40.270Z,21.10
2023-05-23T21:26:07.137Z,21.10
2023-05-23T21:28:33.948Z,21.00
2023-05-23T21:31:03.331Z,21.10
2023-05-23T21:33:30.370Z,21.10
2023-05-23T21:35:58.735Z,21.10
2023-05-23T21:38:30.338Z,21.10
2023-05-23T21:40:57.143Z,21.00
2023-05-23T21:43:23.994Z,21.00
2023-05-23T21:45:50.887Z,21.00
2023-05-23T21:48:17.678Z,20.90
2023-05-23T21:50:44.612Z,20.90
2023-05-23T21:53:13.648Z,20.90
2023-05-23T21:55:40.496Z,20.80
2023-05-23T21:58:07.316Z,20.80
2023-05-23T22:00:34.141Z,20.70
2023-05-23T22:03:01.086Z,20.70
2023-05-23T22:05:30.532Z,20.70
2023-05-23T22:07:57.398Z,20.60
2023-05-23T22:10:25.567Z,20.60
2023-05-23T22:12:52.377Z,20.60
2023-05-23T22:15:19.172Z,20.60
2023-05-23T22:17:48.307Z,20.60
2023-05-23T22:20:16.654Z,20.60
2023-05-23T22:22:45.509Z,20.60
2023-05-23T22:25:12.388Z,20.50
2023-05-23T22:27:39.257Z,20.50
2023-05-23T22:30:09.182Z,20.50
2023-05-23T22:32:38.542Z,20.50
2023-05-23T22:35:05.882Z,20.40
2023-05-23T22:37:32.702Z,20.50
2023-05-23T22:39:59.557Z,20.40
2023-05-23T22:42:28.633Z,20.40
2023-05-23T22:44:55.417Z,20.40
2023-05-23T22:47:24.561Z,20.30
2023-05-23T22:49:56.503Z,20.30
2023-05-23T22:52:31.224Z,20.30
2023-05-23T22:55:00.346Z,20.20
2023-05-23T22:57:27.164Z,20.20
2023-05-23T22:59:53.960Z,20.10
2023-05-23T23:02:23.135Z,20.10
2023-05-23T23:04:50.017Z,20.10
2023-05-23T23:07:16.883Z,20.10
2023-05-23T23:09:43.731Z,20.10
2023-05-23T23:12:10.585Z,20.10
2023-05-23T23:14:37.383Z,20.10
2023-05-23T23:17:05.021Z,20.10
2023-05-23T23:19:35.283Z,20.10
2023-05-23T23:22:02.207Z,20.00
2023-05-23T23:24:28.994Z,20.00
2023-05-23T23:26:55.832Z,20.00
2023-05-23T23:29:22.835Z,19.90
2023-05-23T23:31:51.861Z,19.90
2023-05-23T23:34:18.772Z,19.90
2023-05-23T23:36:45.786Z,19.90
2023-05-23T23:39:12.541Z,19.80
2023-05-23T23:41:39.327Z,19.80
2023-05-23T23:44:06.181Z,19.80
2023-05-23T23:46:32.981Z,19.80
2023-05-23T23:48:59.819Z,19.80
2023-05-23T23:51:28.811Z,19.80
2023-05-23T23:53:56.518Z,19.80
2023-05-23T23:56:24.725Z,19.80
2023-05-23T23:58:51.685Z,19.70
